Weather History for Dixon AP, Dixon, WY, WY

Change the Weather History Date:

Thursday, January 9, 2014

  Actual Average (KCAG) Record (KCAG)
Temperature  
Mean Temperature 24 °F 15 °F  
Max Temperature 32 °F 29 °F 43 °F (2005)
Min Temperature 15 °F 1 °F -16 °F (2011)
Degree Days  
Heating Degree Days 42 50  
Month to date heating degree days 450  
Since 1 July heating degree days 4006  
Cooling Degree Days 0 0  
Month to date cooling degree days 0  
Year to date cooling degree days 0  
Moisture  
Dew Point 22 °F    
Average Humidity 82    
Maximum Humidity 94    
Minimum Humidity 63    
Precipitation  
Precipitation 0.00 in 0.03 in 0.17 in (2008)
Month to date precipitation 0.24  
Year to date precipitation 0.24  
Sea Level Pressure  
Sea Level Pressure 29.92 in    
Wind  
Wind Speed 8 mph (SW)    
Max Wind Speed 28 mph    
Max Gust Speed 29 mph    
Visibility 8 miles    
Events Snow    
T = Trace of Precipitation, MM = Missing Value Source: NWS Daily Summary

Daily Weather History Graph

Daily Weather History Graph

Search for Another Location

Airport:

Trip Planner

Search our weather history database for the weather conditions in past years. The results will help you decide how hot, cold, wet, or windy it might be!

Date:

Astronomy

Jan. 09, 2014 Rise Set
Actual Time 7:34 AM MST 5:00 PM MST
Civil Twilight 7:03 AM MST 5:30 PM MST
Nautical Twilight 6:29 AM MST 6:04 PM MST
Astronomical Twilight 5:56 AM MST 6:38 PM MST
Moon 12:29 PM MST (1/9) 1:44 AM MST (1/9)
Length of Visible Light 10h 26m
Length of Day
9h 25m
Waxing Gibbous, 66% of the Moon is Illuminated
Jan 9
Waxing Gibbous
Jan 15
Full
Jan 23
Last Quarter
Jan 30
New
Feb 6
First Quarter

Hourly Weather History & Observations

Time (MST) Temp. Windchill Dew Point Humidity Pressure Visibility Wind Dir Wind Speed Gust Speed Precip Events Conditions
12:15 AM 29.1 °F 23.0 °F 25.7 °F 87% 30.06 in 10.0 mi WSW 5.8 mph - N/A   Overcast
12:35 AM 29.3 °F 23.2 °F 25.5 °F 86% 30.06 in 10.0 mi SW 5.8 mph - N/A   Overcast
12:55 AM 28.4 °F 22.2 °F 25.5 °F 89% 30.05 in 10.0 mi SW 5.8 mph - N/A   Overcast
1:15 AM 28.0 °F 24.2 °F 25.3 °F 90% 30.04 in 10.0 mi West 3.5 mph - N/A   Overcast
1:35 AM 28.2 °F - 25.3 °F 89% 30.04 in 10.0 mi Calm Calm - N/A   Overcast
1:55 AM 25.9 °F - 23.7 °F 92% 30.04 in 10.0 mi Calm Calm - N/A   Overcast
2:15 AM 24.6 °F 18.8 °F 22.6 °F 92% 30.03 in 10.0 mi ENE 4.6 mph - N/A   Overcast
2:35 AM 24.3 °F 19.9 °F 22.1 °F 91% 30.02 in 10.0 mi NE 3.5 mph - N/A   Overcast
2:55 AM 23.9 °F 19.5 °F 21.7 °F 91% 30.02 in 10.0 mi NW 3.5 mph - N/A   Overcast
3:15 AM 26.6 °F 21.2 °F 23.2 °F 87% 30.02 in 10.0 mi WSW 4.6 mph - N/A   Overcast
3:35 AM 27.7 °F 18.8 °F 23.2 °F 83% 30.01 in 10.0 mi South 9.2 mph - N/A   Overcast
3:55 AM 26.6 °F 19.1 °F 22.1 °F 83% 29.99 in 10.0 mi South 6.9 mph - N/A   Overcast
4:15 AM 19.8 °F 13.2 °F 17.6 °F 91% 29.99 in 10.0 mi North 4.6 mph - N/A   Overcast
4:35 AM 22.8 °F 18.2 °F 20.5 °F 91% 29.99 in 10.0 mi North 3.5 mph - N/A   Overcast
4:55 AM 25.5 °F 17.8 °F 23.2 °F 91% 29.99 in 10.0 mi West 6.9 mph - N/A   Overcast
5:15 AM 26.6 °F 17.5 °F 25.2 °F 94% 29.99 in 10.0 mi West 9.2 mph - N/A   Overcast
5:35 AM 27.0 °F 16.7 °F 25.3 °F 94% 29.99 in 10.0 mi West 11.5 mph - N/A   Overcast
5:55 AM 26.8 °F 18.5 °F 25.2 °F 94% 29.99 in 10.0 mi West 8.1 mph - N/A Snow Light Snow
6:15 AM 27.3 °F 19.1 °F 25.7 °F 94% 29.99 in 10.0 mi SW 8.1 mph - N/A Snow Light Snow
6:35 AM 27.9 °F 20.6 °F 25.5 °F 91% 29.98 in 7.0 mi WSW 6.9 mph - N/A Snow Light Snow
6:55 AM 27.3 °F 17.7 °F 23.9 °F 87% 29.98 in 10.0 mi SW 10.4 mph - N/A   Overcast
7:15 AM 26.8 °F 18.5 °F 23.2 °F 86% 29.98 in 10.0 mi SW 8.1 mph - N/A   Overcast
7:35 AM 26.8 °F 15.4 °F 22.8 °F 85% 29.97 in 10.0 mi SSW 13.8 mph 17.3 mph N/A   Overcast
7:55 AM 27.0 °F 16.7 °F 22.6 °F 84% 29.97 in 10.0 mi SSW 11.5 mph 16.1 mph N/A   Overcast
8:15 AM 27.5 °F 16.3 °F 22.5 °F 81% 29.96 in 10.0 mi SSW 13.8 mph 19.6 mph N/A   Overcast
8:35 AM 27.7 °F 18.8 °F 22.1 °F 80% 29.97 in 10.0 mi SW 9.2 mph - N/A   Overcast
8:55 AM 27.1 °F 17.5 °F 21.9 °F 81% 29.97 in 10.0 mi SW 10.4 mph - N/A   Overcast
9:15 AM 25.0 °F 18.1 °F 21.0 °F 85% 29.97 in 10.0 mi WSW 5.8 mph - N/A   Overcast
9:35 AM 27.0 °F 20.5 °F 21.2 °F 79% 29.96 in 10.0 mi West 5.8 mph - N/A   Overcast
9:55 AM 30.9 °F 21.2 °F 21.0 °F 67% 29.96 in 10.0 mi SSW 12.7 mph 20.7 mph N/A   Overcast
10:15 AM 31.8 °F 20.6 °F 20.5 °F 63% 29.95 in 10.0 mi SSW 17.3 mph 21.9 mph N/A   Overcast
10:35 AM 32.0 °F 20.8 °F 20.7 °F 63% 29.95 in 10.0 mi SSW 17.3 mph 23.0 mph N/A   Overcast
10:55 AM 32.0 °F 22.1 °F 21.2 °F 64% 29.94 in 10.0 mi SSW 13.8 mph 25.3 mph N/A   Overcast
11:15 AM 32.0 °F 20.8 °F 21.4 °F 65% 29.92 in 10.0 mi SSW 17.3 mph 28.8 mph N/A   Overcast
11:35 AM 32.0 °F 21.6 °F 21.6 °F 65% 29.91 in 10.0 mi SSW 15.0 mph 21.9 mph N/A   Overcast
11:55 AM 32.0 °F 20.8 °F 22.1 °F 67% 29.90 in 10.0 mi SSW 17.3 mph 25.3 mph N/A   Overcast
12:15 PM 31.5 °F 19.8 °F 23.7 °F 73% 29.89 in 5.0 mi SW 18.4 mph 23.0 mph N/A Snow Light Snow
12:35 PM 30.7 °F 20.4 °F 25.2 °F 80% 29.88 in 1.5 mi SW 13.8 mph 19.6 mph N/A Snow Light Snow
12:55 PM 30.4 °F 21.5 °F 25.7 °F 83% 29.86 in 1.8 mi SSW 10.4 mph 20.7 mph N/A Snow Light Snow
1:15 PM 30.9 °F 20.2 °F 25.7 °F 81% 29.85 in 2.5 mi SW 15.0 mph 23.0 mph N/A Snow Light Snow
1:35 PM 30.6 °F 20.2 °F 26.6 °F 85% 29.84 in 1.2 mi SSW 13.8 mph - N/A Snow Light Snow
1:55 PM 30.9 °F 19.8 °F 27.1 °F 86% 29.83 in 1.5 mi SW 16.1 mph 23.0 mph N/A Snow Light Snow
2:15 PM 31.1 °F 20.9 °F 26.8 °F 84% 29.83 in 3.0 mi SW 13.8 mph 20.7 mph N/A Snow Light Snow
2:35 PM 31.6 °F 22.1 °F 26.6 °F 82% 29.82 in 5.0 mi SW 12.7 mph 20.7 mph N/A Snow Light Snow
2:55 PM 31.5 °F 23.5 °F 27.5 °F 85% 29.82 in 1.8 mi SW 9.2 mph 18.4 mph N/A Snow Light Snow
3:15 PM 31.8 °F 20.2 °F 27.1 °F 83% 29.81 in 7.0 mi SSW 18.4 mph - N/A Snow Light Snow
4:15 PM 30.9 °F 22.2 °F 28.4 °F 90% 29.81 in 1.8 mi SW 10.4 mph 18.4 mph N/A Snow Light Snow
4:35 PM 30.7 °F 22.6 °F 28.4 °F 91% 29.81 in 3.0 mi SW 9.2 mph 16.1 mph N/A Snow Light Snow
4:55 PM 30.2 °F 21.9 °F 28.4 °F 93% 29.81 in 1.0 mi SW 9.2 mph - N/A Snow Light Snow
5:15 PM 30.2 °F 19.8 °F 28.4 °F 93% 29.81 in 1.2 mi SW 13.8 mph 17.3 mph N/A Snow Light Snow
5:35 PM 30.2 °F 21.3 °F 28.6 °F 94% 29.81 in 1.2 mi WSW 10.4 mph - N/A Snow Light Snow
5:55 PM 30.0 °F 22.4 °F 28.4 °F 94% 29.81 in 1.0 mi WSW 8.1 mph - N/A Snow Snow
6:15 PM 29.5 °F 19.3 °F 28.0 °F 94% 29.81 in 0.5 mi WSW 12.7 mph 20.7 mph N/A Snow Heavy Snow
6:35 PM 28.9 °F 14.0 °F 27.5 °F 94% 29.82 in 0.8 mi West 27.6 mph - N/A Snow Snow
6:55 PM 26.2 °F 14.2 °F 22.3 °F 85% 29.84 in 5.0 mi West 15.0 mph - N/A Snow Light Snow
7:15 PM 25.7 °F 14.0 °F 21.2 °F 83% 29.86 in 10.0 mi West 13.8 mph - N/A   Overcast
7:35 PM 25.7 °F 14.6 °F 20.7 °F 81% 29.87 in 10.0 mi West 12.7 mph - N/A   Overcast
7:55 PM 25.3 °F 13.1 °F 18.7 °F 76% 29.87 in 7.0 mi West 15.0 mph - N/A Snow Light Snow
8:15 PM 24.6 °F 15.1 °F 17.6 °F 75% 29.87 in 7.0 mi West 9.2 mph - N/A Snow Light Snow
8:35 PM 24.3 °F 15.4 °F 16.5 °F 72% 29.87 in 10.0 mi WSW 8.1 mph - N/A   Overcast
8:55 PM 23.5 °F 16.4 °F 15.6 °F 72% 29.88 in 10.0 mi WSW 5.8 mph - N/A   Overcast
9:15 PM 22.1 °F 15.9 °F 14.4 °F 72% 29.89 in 10.0 mi West 4.6 mph - N/A   Overcast
9:35 PM 20.1 °F 11.3 °F 12.7 °F 73% 29.89 in 10.0 mi WSW 6.9 mph - N/A   Overcast
9:55 PM 19.6 °F 14.5 °F 11.5 °F 71% 29.89 in 10.0 mi WSW 3.5 mph - N/A   Overcast
10:15 PM 15.3 °F 7.9 °F 7.9 °F 73% 29.89 in 10.0 mi SSW 4.6 mph - N/A   Scattered Clouds
10:35 PM 18.0 °F 7.7 °F 10.8 °F 73% 29.89 in 10.0 mi SW 8.1 mph - N/A   Mostly Cloudy
10:55 PM 19.9 °F 11.1 °F 12.2 °F 72% 29.89 in 10.0 mi WSW 6.9 mph - N/A   Overcast
11:15 PM 19.8 °F 9.1 °F 12.0 °F 72% 29.89 in 10.0 mi SW 9.2 mph - N/A   Overcast
11:35 PM 20.8 °F 9.0 °F 12.6 °F 70% 29.89 in 10.0 mi SW 11.5 mph - N/A   Overcast
11:55 PM 21.2 °F 10.1 °F 12.2 °F 68% 29.88 in 10.0 mi WSW 10.4 mph 17.3 mph N/A   Overcast